Time;durP1;ratioP1;P1;durP2;ratioP2;P2;SDS_P1;SDS_P2;PMS_P1;PMS_P2;Temp;Humidity;BMP_temperature;BMP_pressure;BME280_temperature;BME280_humidity;BME280_pressure;Samples;Min_cycle;Max_cycle;Signal;HPM_P1;HPM_P2
2022/08/21 00:02:14;;;;;;;8.63;5.97;;;;;;;13.17;100.00;100687.88;4943034;29;20047;-73
2022/08/21 00:04:40;;;;;;;8.07;5.80;;;;;;;13.18;100.00;100696.63;4951691;28;20081;-71
2022/08/21 00:07:05;;;;;;;8.07;5.50;;;;;;;13.09;100.00;100681.28;4966622;28;20795;-72
2022/08/21 00:09:30;;;;;;;7.90;5.43;;;;;;;13.04;100.00;100678.91;4949736;28;20019;-73
2022/08/21 00:11:56;;;;;;;9.15;5.22;;;;;;;13.12;100.00;100692.53;4952742;28;20543;-72
2022/08/21 00:14:21;;;;;;;8.43;5.32;;;;;;;13.09;100.00;100690.06;5018556;28;20032;-73
2022/08/21 00:16:46;;;;;;;8.48;5.10;;;;;;;12.99;100.00;100678.28;4941726;28;20123;-73
2022/08/21 00:19:12;;;;;;;7.95;5.18;;;;;;;13.01;100.00;100684.31;4952707;28;20032;-72
2022/08/21 00:21:38;;;;;;;6.65;5.20;;;;;;;12.95;100.00;100674.13;4952873;28;20349;-72
2022/08/21 00:24:04;;;;;;;9.73;5.60;;;;;;;12.92;100.00;100674.28;4952225;28;20027;-73
2022/08/21 00:26:30;;;;;;;10.85;5.40;;;;;;;12.89;100.00;100674.47;4952397;28;20038;-72
2022/08/21 00:28:55;;;;;;;8.82;5.20;;;;;;;12.76;100.00;100650.56;4950410;28;20092;-73
2022/08/21 00:31:20;;;;;;;15.45;5.80;;;;;;;12.82;100.00;100665.19;4967530;28;20059;-73
2022/08/21 00:33:46;;;;;;;8.95;5.63;;;;;;;12.88;100.00;100675.38;4952266;28;20038;-73
2022/08/21 00:36:12;;;;;;;10.70;5.28;;;;;;;12.80;100.00;100672.34;4952199;28;20473;-73
2022/08/21 00:38:38;;;;;;;9.05;5.47;;;;;;;12.79;100.00;100673.28;4950624;28;20060;-72
2022/08/21 00:41:05;;;;;;;8.07;5.95;;;;;;;12.78;100.00;100671.56;4952357;29;20028;-72
2022/08/21 00:43:34;;;;;;;6.65;5.75;;;;;;;12.80;100.00;100682.88;4951781;28;20028;-72
2022/08/21 00:46:00;;;;;;;7.93;5.97;;;;;;;12.77;100.00;100680.44;4952049;28;20456;-73
2022/08/21 00:48:26;;;;;;;13.82;6.43;;;;;;;12.74;100.00;100675.31;4934908;29;20487;-73
2022/08/21 00:50:57;;;;;;;8.82;6.03;;;;;;;12.73;100.00;100678.88;4950483;29;20115;-73
2022/08/21 00:53:23;;;;;;;9.15;5.95;;;;;;;12.70;100.00;100674.63;4952409;28;20478;-73
2022/08/21 00:55:49;;;;;;;13.23;6.07;;;;;;;12.68;100.00;100676.50;4923392;28;20027;-73
2022/08/21 00:58:15;;;;;;;9.43;6.40;;;;;;;12.61;100.00;100669.84;4952056;28;20031;-73
2022/08/21 01:00:44;;;;;;;11.25;6.47;;;;;;;12.58;100.00;100671.78;4951105;28;20023;-73
2022/08/21 01:03:14;;;;;;;9.30;6.45;;;;;;;12.54;100.00;100678.19;4934623;28;20390;-73
2022/08/21 01:05:41;;;;;;;10.10;7.38;;;;;;;12.58;100.00;100671.78;4951368;29;20038;-72
2022/08/21 01:08:07;;;;;;;8.00;7.03;;;;;;;12.39;100.00;100642.09;4950266;28;20027;-72
2022/08/21 01:10:34;;;;;;;10.10;7.60;;;;;;;12.61;100.00;100676.91;4951976;29;20031;-72
2022/08/21 01:13:00;;;;;;;9.45;7.95;;;;;;;12.63;100.00;100673.25;4966003;28;20035;-72
2022/08/21 01:15:32;;;;;;;10.02;7.32;;;;;;;12.35;100.00;100632.66;4966700;28;20050;-72
2022/08/21 01:17:57;;;;;;;10.52;7.35;;;;;;;12.64;100.00;100680.22;4946335;28;20509;-73
2022/08/21 01:20:23;;;;;;;11.18;7.38;;;;;;;12.63;100.00;100690.88;4934446;28;20031;-73
2022/08/21 01:22:48;;;;;;;11.80;6.53;;;;;;;12.61;100.00;100690.06;4940320;28;20036;-72
2022/08/21 01:25:15;;;;;;;11.52;6.95;;;;;;;12.60;100.00;100689.25;4947530;28;20024;-73
2022/08/21 01:27:41;;;;;;;9.48;6.63;;;;;;;12.57;100.00;100683.28;4941469;28;20429;-72
2022/08/21 01:30:14;;;;;;;9.55;6.75;;;;;;;12.54;100.00;100692.19;4938156;28;20031;-73
2022/08/21 01:32:40;;;;;;;7.63;5.93;;;;;;;12.35;100.00;100666.91;4966540;28;20023;-72
2022/08/21 01:35:06;;;;;;;8.98;6.85;;;;;;;12.47;100.00;100687.34;4951551;28;20061;-72
2022/08/21 01:37:32;;;;;;;6.47;5.70;;;;;;;12.47;100.00;100688.19;4951527;29;20028;-72
2022/08/21 01:39:58;;;;;;;13.05;6.53;;;;;;;12.42;100.00;100686.72;4951210;29;20118;-73
2022/08/21 01:42:23;;;;;;;9.32;7.25;;;;;;;12.39;100.00;100686.91;4951320;28;20035;-72
2022/08/21 01:44:48;;;;;;;9.35;6.18;;;;;;;12.41;100.00;100677.97;4941348;28;20039;-72
2022/08/21 01:47:15;;;;;;;9.77;6.40;;;;;;;12.40;100.00;100678.06;4947252;28;20028;-72
2022/08/21 01:49:41;;;;;;;9.57;6.75;;;;;;;12.38;100.00;100672.88;4939765;28;20031;-73
2022/08/21 01:52:07;;;;;;;8.88;6.85;;;;;;;12.38;100.00;100677.28;4938561;28;20028;-73
2022/08/21 01:54:33;;;;;;;11.55;5.60;;;;;;;12.35;100.00;100666.91;4945008;29;20039;-72
2022/08/21 01:56:59;;;;;;;13.93;6.97;;;;;;;12.34;100.00;100660.78;4944757;28;20063;-72
2022/08/21 01:59:25;;;;;;;8.25;5.82;;;;;;;12.30;100.00;100660.09;4933854;28;20031;-72
2022/08/21 02:01:52;;;;;;;9.70;5.72;;;;;;;12.29;100.00;100671.59;4950860;28;20047;-72
2022/08/21 02:04:17;;;;;;;19.17;7.30;;;;;;;12.27;100.00;100668.16;4942085;28;20034;-72
2022/08/21 02:06:43;;;;;;;8.82;6.32;;;;;;;11.95;100.00;100616.31;4945144;28;20027;-72
2022/08/21 02:09:10;;;;;;;6.00;5.18;;;;;;;12.28;100.00;100669.88;4949923;28;20038;-72
2022/08/21 02:11:36;;;;;;;12.00;6.25;;;;;;;12.26;100.00;100666.47;4947410;28;20019;-72
2022/08/21 02:14:02;;;;;;;10.27;6.07;;;;;;;12.24;100.00;100665.69;4930414;29;20123;-72
2022/08/21 02:16:27;;;;;;;11.93;5.75;;;;;;;12.23;100.00;100669.25;4953819;28;20106;-72
2022/08/21 02:18:53;;;;;;;8.85;5.40;;;;;;;12.22;100.00;100677.25;4954288;28;20023;-71
2022/08/21 02:21:18;;;;;;;8.07;5.28;;;;;;;12.21;100.00;100667.63;4952382;28;20507;-72
2022/08/21 02:23:44;;;;;;;10.45;5.78;;;;;;;12.19;100.00;100666.88;4935242;28;20074;-72
2022/08/21 02:26:10;;;;;;;9.63;5.45;;;;;;;12.18;100.00;100666.00;4947428;28;20042;-72
2022/08/21 02:28:38;;;;;;;6.80;5.35;;;;;;;11.89;100.00;100624.56;4953664;28;20473;-72
2022/08/21 02:31:05;;;;;;;9.82;5.43;;;;;;;12.09;100.00;100661.25;4946521;28;20028;-72
2022/08/21 02:33:30;;;;;;;11.48;5.78;;;;;;;12.13;100.00;100665.38;4945974;28;20036;-71
2022/08/21 02:35:56;;;;;;;12.38;6.07;;;;;;;12.08;100.00;100670.06;4952495;28;20045;-71
2022/08/21 02:38:30;;;;;;;9.82;4.93;;;;;;;12.07;100.00;100655.19;4931170;29;20024;-71
2022/08/21 02:40:57;;;;;;;6.85;5.40;;;;;;;11.92;100.00;100645.47;4954295;28;20089;-71
2022/08/21 02:43:25;;;;;;;10.75;4.90;;;;;;;12.05;100.00;100664.97;4953918;28;20032;-71
2022/08/21 02:45:51;;;;;;;11.10;5.20;;;;;;;12.01;100.00;100662.56;4951181;29;20139;-71
2022/08/21 02:48:19;;;;;;;10.35;5.50;;;;;;;12.01;100.00;100655.50;4954041;28;20496;-72
2022/08/21 02:50:55;;;;;;;7.78;4.60;;;;;;;12.00;100.00;100656.44;4953949;28;20469;-71
2022/08/21 02:53:21;;;;;;;10.32;5.13;;;;;;;11.90;100.00;100639.41;4941073;28;20031;-71
2022/08/21 02:55:49;;;;;;;8.77;5.35;;;;;;;11.99;100.00;100657.38;5019681;28;20395;-71
2022/08/21 02:58:17;;;;;;;11.15;5.40;;;;;;;11.81;100.00;100633.75;4953526;28;20027;-71
2022/08/21 03:00:43;;;;;;;8.07;5.47;;;;;;;11.83;100.00;100624.84;4953764;28;20153;-71
2022/08/21 03:03:09;;;;;;;13.55;6.07;;;;;;;11.94;100.00;100654.13;4953642;28;20508;-71
2022/08/21 03:05:35;;;;;;;11.40;5.95;;;;;;;11.89;100.00;100661.41;4953351;29;20446;-71
2022/08/21 03:08:02;;;;;;;6.68;4.70;;;;;;;11.83;100.00;100658.25;4950651;29;20031;-71
2022/08/21 03:10:28;;;;;;;6.35;4.75;;;;;;;11.77;100.00;100654.13;4941412;29;20027;-71
2022/08/21 03:12:54;;;;;;;8.98;4.20;;;;;;;11.82;100.00;100661.81;4956372;28;20387;-71
2022/08/21 03:15:22;;;;;;;10.55;5.22;;;;;;;11.80;100.00;100659.22;4951639;28;20053;-71
2022/08/21 03:17:47;;;;;;;7.80;5.68;;;;;;;11.80;100.00;100661.88;4953484;28;20030;-70
2022/08/21 03:20:15;;;;;;;6.65;4.82;;;;;;;11.79;100.00;100663.66;4953322;28;20028;-71
2022/08/21 03:22:40;;;;;;;12.00;4.72;;;;;;;11.80;100.00;100661.88;4953239;28;20500;-71
2022/08/21 03:25:06;;;;;;;8.32;5.22;;;;;;;11.71;100.00;100650.03;4952603;29;20028;-70
2022/08/21 03:27:33;;;;;;;7.53;4.97;;;;;;;11.74;100.00;100649.88;4952641;28;20090;-71
2022/08/21 03:29:59;;;;;;;10.45;4.88;;;;;;;11.78;100.00;100666.38;4953033;28;20054;-71
2022/08/21 03:32:24;;;;;;;9.57;5.45;;;;;;;11.74;100.00;100657.78;4953731;28;20466;-70
2022/08/21 03:34:49;;;;;;;13.32;5.97;;;;;;;11.76;100.00;100665.59;4952795;28;20038;-71
2022/08/21 03:37:15;;;;;;;12.40;5.57;;;;;;;11.74;100.00;100664.81;4955662;28;20066;-71
2022/08/21 03:39:41;;;;;;;15.00;4.93;;;;;;;11.66;100.00;100652.00;4935303;28;20481;-70
2022/08/21 03:42:07;;;;;;;8.15;5.05;;;;;;;11.58;100.00;100645.44;4937570;28;20149;-71
2022/08/21 03:44:34;;;;;;;13.05;5.70;;;;;;;11.73;100.00;100666.59;4952599;28;20472;-71
2022/08/21 03:47:00;;;;;;;9.15;5.60;;;;;;;11.67;100.00;100666.03;4951053;28;20031;-70
2022/08/21 03:49:25;;;;;;;10.30;5.32;;;;;;;11.54;100.00;100651.78;4952645;28;20099;-70
2022/08/21 03:51:51;;;;;;;11.43;5.97;;;;;;;11.65;100.00;100670.53;4952545;28;20542;-70
2022/08/21 03:54:16;;;;;;;9.90;5.25;;;;;;;11.64;100.00;100672.31;4949936;28;20118;-71
2022/08/21 03:56:41;;;;;;;7.97;5.40;;;;;;;11.63;100.00;100672.34;4952871;29;20038;-71
2022/08/21 03:59:07;;;;;;;9.68;5.35;;;;;;;11.61;100.00;100666.34;4953034;29;20027;-71
2022/08/21 04:01:32;;;;;;;9.52;5.03;;;;;;;11.53;100.00;100660.59;4952038;28;20031;-72
2022/08/21 04:03:58;;;;;;;9.45;5.63;;;;;;;11.36;100.00;100629.00;4952622;28;20027;-72
2022/08/21 04:06:25;;;;;;;9.38;5.43;;;;;;;11.53;100.00;100671.13;4952265;28;20530;-71
2022/08/21 04:08:51;;;;;;;10.15;5.63;;;;;;;11.50;100.00;100666.00;4967472;28;20036;-72
2022/08/21 04:11:16;;;;;;;8.10;4.80;;;;;;;11.45;100.00;100668.03;4934120;29;20086;-72
2022/08/21 04:13:41;;;;;;;10.82;5.25;;;;;;;11.36;100.00;100663.19;4937302;28;20038;-72
2022/08/21 04:16:07;;;;;;;8.50;4.88;;;;;;;11.42;100.00;100673.44;4935238;29;20115;-72
2022/08/21 04:18:33;;;;;;;16.20;5.60;;;;;;;11.14;100.00;100630.06;4926384;29;20393;-72
2022/08/21 04:20:59;;;;;;;9.15;5.70;;;;;;;11.44;100.00;100674.22;4952479;28;20039;-72
2022/08/21 04:23:25;;;;;;;10.88;5.22;;;;;;;11.45;100.00;100668.03;4952363;28;20391;-72
2022/08/21 04:25:52;;;;;;;10.32;5.13;;;;;;;11.42;100.00;100668.19;4925116;28;20035;-72
2022/08/21 04:28:18;;;;;;;14.70;5.85;;;;;;;11.27;100.00;100639.06;4952666;28;20031;-72
2022/08/21 04:30:43;;;;;;;11.45;5.30;;;;;;;11.42;100.00;100676.09;4947711;28;20498;-72
2022/08/21 04:33:08;;;;;;;8.82;5.07;;;;;;;11.36;100.00;100669.31;5017365;28;20062;-72
2022/08/21 04:35:34;;;;;;;9.73;5.18;;;;;;;11.37;100.00;100680.69;4939242;29;20110;-72
2022/08/21 04:37:59;;;;;;;14.02;4.85;;;;;;;11.32;100.00;100666.94;4914309;28;20873;-72
2022/08/21 04:40:27;;;;;;;6.32;4.57;;;;;;;11.35;100.00;100677.31;4924958;28;20031;-72
2022/08/21 04:42:55;;;;;;;12.10;5.43;;;;;;;11.17;100.00;100650.97;4948208;28;20051;-72
2022/08/21 04:45:28;;;;;;;8.00;5.53;;;;;;;11.31;100.00;100676.59;4952532;29;20023;-72
2022/08/21 04:47:57;;;;;;;9.77;5.65;;;;;;;11.31;100.00;100675.75;4955141;28;20050;-72
2022/08/21 04:50:26;;;;;;;8.60;5.13;;;;;;;11.19;100.00;100654.34;4935059;29;20027;-72
2022/08/21 04:52:52;;;;;;;8.35;5.38;;;;;;;11.29;100.00;100665.28;4951612;28;20125;-72
2022/08/21 04:55:18;;;;;;;11.13;5.50;;;;;;;11.36;100.00;100679.84;4950039;28;20114;-71
2022/08/21 04:57:43;;;;;;;18.52;6.10;;;;;;;11.29;100.00;100671.41;4930666;28;20027;-71
2022/08/21 05:00:10;;;;;;;8.60;5.55;;;;;;;11.38;100.00;100685.91;4928096;28;20046;-71
2022/08/21 05:02:36;;;;;;;8.25;5.25;;;;;;;11.40;100.00;100691.06;4945277;28;20039;-71
2022/08/21 05:05:01;;;;;;;7.93;4.55;;;;;;;11.35;100.00;100680.78;4906369;28;20054;-71
2022/08/21 05:07:28;;;;;;;13.25;5.18;;;;;;;11.39;100.00;100689.38;5017603;28;20027;-71
2022/08/21 05:09:54;;;;;;;9.07;4.63;;;;;;;11.33;100.00;100673.88;4951660;28;20019;-71
2022/08/21 05:12:19;;;;;;;7.28;5.18;;;;;;;11.34;100.00;100680.84;4951675;28;20027;-71
2022/08/21 05:14:44;;;;;;;7.43;5.40;;;;;;;11.32;100.00;100674.81;4966767;28;20031;-71
2022/08/21 05:17:10;;;;;;;10.43;5.75;;;;;;;11.49;100.00;100691.47;4949816;28;20039;-71
2022/08/21 05:19:36;;;;;;;10.93;6.07;;;;;;;11.54;100.00;100686.84;4951776;28;20069;-71
2022/08/21 05:22:01;;;;;;;12.32;5.00;;;;;;;11.34;100.00;100650.13;4951611;28;20035;-71
2022/08/21 05:24:28;;;;;;;7.70;5.65;;;;;;;11.56;100.00;100660.44;4948330;28;20031;-70
2022/08/21 05:26:53;;;;;;;13.45;5.38;;;;;;;11.73;100.00;100678.91;4943802;28;20063;-70
2022/08/21 05:29:18;;;;;;;9.70;5.20;;;;;;;11.82;100.00;100686.34;4947565;28;20055;-71
2022/08/21 05:31:45;;;;;;;18.58;5.40;;;;;;;11.88;100.00;100686.03;4944087;28;20045;-70
2022/08/21 05:34:10;;;;;;;14.77;5.70;;;;;;;11.60;100.00;100625.16;4933125;28;20042;-70
2022/08/21 05:36:36;;;;;;;11.35;5.50;;;;;;;11.97;100.00;100667.13;4946292;28;20027;-71
2022/08/21 05:39:02;;;;;;;7.55;4.20;;;;;;;12.07;100.00;100678.88;4946836;28;20031;-71
2022/08/21 05:41:28;;;;;;;8.35;4.63;;;;;;;12.14;100.00;100675.00;4951903;28;20031;-70
2022/08/21 05:43:53;;;;;;;13.35;5.13;;;;;;;12.16;100.00;100667.91;4946567;28;20114;-70
2022/08/21 05:46:18;;;;;;;12.52;4.72;;;;;;;12.29;100.00;100676.84;4954469;28;20063;-70
2022/08/21 05:48:44;;;;;;;8.43;4.40;;;;;;;12.39;100.00;100682.47;4953747;28;20043;-71
2022/08/21 05:51:12;;;;;;;9.77;4.60;;;;;;;12.47;100.00;100688.19;4954433;28;20534;-71
2022/08/21 05:53:38;;;;;;;8.02;4.53;;;;;;;12.57;100.00;100689.38;4954663;29;20023;-71
2022/08/21 05:56:04;;;;;;;12.82;4.05;;;;;;;12.67;100.00;100689.78;4936712;28;20057;-71
2022/08/21 05:58:32;;;;;;;11.02;3.90;;;;;;;12.74;100.00;100688.50;4955138;28;20031;-71
2022/08/21 06:00:58;;;;;;;10.23;4.40;;;;;;;12.80;100.00;100686.38;4931840;28;20086;-71
2022/08/21 06:03:26;;;;;;;8.30;4.38;;;;;;;12.85;100.00;100688.75;4938308;28;20390;-71
2022/08/21 06:05:52;;;;;;;10.32;4.05;;;;;;;12.99;100.00;100699.41;4948553;29;20071;-71
2022/08/21 06:08:18;;;;;;;8.65;4.30;;;;;;;13.07;100.00;100707.75;4953630;28;20089;-71
2022/08/21 06:10:44;;;;;;;11.10;4.00;;;;;;;13.21;100.00;100717.56;4931318;28;20382;-71
2022/08/21 06:13:10;;;;;;;6.30;3.65;;;;;;;13.32;100.00;100713.38;4947833;28;20031;-71
2022/08/21 06:15:36;;;;;;;7.57;3.83;;;;;;;13.42;100.00;100726.91;4938943;29;20036;-70
2022/08/21 06:18:01;;;;;;;16.92;3.83;;;;;;;13.51;100.00;100720.25;4943288;29;20024;-70
2022/08/21 06:20:27;;;;;;;8.40;3.70;;;;;;;13.62;100.00;100708.13;4934444;28;20032;-71
2022/08/21 06:22:52;;;;;;;8.63;3.83;;;;;;;13.52;100.00;100680.56;4936578;28;20023;-71
2022/08/21 06:25:18;;;;;;;5.97;3.25;;;;;;;13.78;100.00;100713.41;4937361;29;20119;-71
2022/08/21 06:27:43;;;;;;;8.80;3.55;;;;;;;13.88;100.00;100709.28;4943147;28;20173;-71
2022/08/21 06:30:09;;;;;;;6.93;3.28;;;;;;;13.83;100.00;100683.13;4938083;28;20109;-71
2022/08/21 06:32:35;;;;;;;6.90;3.05;;;;;;;14.06;100.00;100707.34;4939435;28;20043;-71
2022/08/21 06:35:00;;;;;;;14.38;4.15;;;;;;;14.16;100.00;100714.59;4938928;28;20031;-71
2022/08/21 06:37:27;;;;;;;9.40;3.03;;;;;;;14.19;100.00;100701.19;4937652;28;20115;-71
2022/08/21 06:39:52;;;;;;;7.32;3.60;;;;;;;14.31;100.00;100708.41;4935347;28;20028;-70
2022/08/21 06:42:17;;;;;;;9.35;3.30;;;;;;;14.38;100.00;100706.28;4934490;29;20093;-71
2022/08/21 06:44:43;;;;;;;12.20;3.45;;;;;;;14.44;100.00;100712.97;4937871;28;20032;-71
2022/08/21 06:47:08;;;;;;;8.00;3.08;;;;;;;14.52;100.00;100705.44;4994053;28;20058;-71
2022/08/21 06:49:34;;;;;;;7.03;2.83;;;;;;;14.68;100.00;100714.13;4940635;28;20055;-71
2022/08/21 06:52:00;;;;;;;15.50;3.10;;;;;;;14.77;100.00;100711.75;4920983;28;20094;-71
2022/08/21 06:54:25;;;;;;;5.88;2.50;;;;;;;14.78;100.00;100702.00;4937073;28;20036;-71
2022/08/21 06:56:51;;;;;;;11.55;3.58;;;;;;;14.85;100.00;100703.34;5005445;28;20449;-71
2022/08/21 06:59:16;;;;;;;11.40;2.53;;;;;;;14.95;100.00;100717.69;4935348;28;20073;-71
2022/08/21 07:01:42;;;;;;;7.15;3.17;;;;;;;15.07;100.00;100713.41;4936530;28;20050;-71
2022/08/21 07:04:07;;;;;;;8.43;2.90;;;;;;;15.12;100.00;100714.81;4936648;28;20036;-71
2022/08/21 07:06:33;;;;;;;8.35;3.17;;;;;;;15.24;100.00;100721.97;4935232;28;20458;-71
2022/08/21 07:08:58;;;;;;;8.13;2.88;;;;;;;15.32;100.00;100719.69;4938674;28;20052;-71
2022/08/21 07:11:24;;;;;;;7.15;2.97;;;;;;;15.43;100.00;100726.09;4938142;28;20031;-70
2022/08/21 07:13:52;;;;;;;6.50;2.17;;;;;;;15.55;100.00;100727.94;4936546;28;20036;-71
2022/08/21 07:16:18;;;;;;;4.90;2.25;;;;;;;15.32;100.00;100674.66;4938309;28;20118;-71
2022/08/21 07:18:43;;;;;;;6.93;2.72;;;;;;;15.73;100.00;100713.50;4936371;29;20065;-71
2022/08/21 07:21:09;;;;;;;6.45;2.55;;;;;;;15.84;100.00;100721.59;4926424;28;20050;-71
2022/08/21 07:23:40;;;;;;;12.55;2.85;;;;;;;15.91;100.00;100717.59;4935302;28;20630;-70
2022/08/21 07:26:06;;;;;;;6.05;2.40;;;;;;;15.99;100.00;100709.09;4933428;28;20123;-70
2022/08/21 07:28:32;;;;;;;9.05;2.72;;;;;;;16.10;100.00;100710.09;4935417;28;20054;-71
2022/08/21 07:30:59;;;;;;;8.27;2.67;;;;;;;16.27;100.00;100716.88;4935915;28;20066;-70
2022/08/21 07:33:26;;;;;;;6.93;2.70;;;;;;;16.28;100.00;100690.28;4937692;28;20027;-69
2022/08/21 07:35:52;;;;;;;6.93;3.00;;;;;;;16.42;100.00;100697.28;4934874;28;20036;-70
2022/08/21 07:38:18;;;;;;;3.70;2.00;;;;;;;16.53;100.00;100702.66;4937242;29;20039;-71
2022/08/21 07:40:45;;;;;;;6.75;2.83;;;;;;;16.67;100.00;100712.34;5002712;28;20046;-70
2022/08/21 07:43:11;;;;;;;4.32;1.98;;;;;;;16.47;100.00;100657.13;4935600;29;20032;-71
2022/08/21 07:45:36;;;;;;;13.10;2.92;;;;;;;16.87;100.00;100709.13;4935643;28;20032;-71
2022/08/21 07:48:03;;;;;;;5.13;2.63;;;;;;;16.96;100.00;100711.16;4934106;28;20035;-71
2022/08/21 07:50:28;;;;;;;4.70;2.08;;;;;;;17.07;100.00;100710.34;4995754;28;20393;-71
2022/08/21 07:52:53;;;;;;;4.57;2.30;;;;;;;17.16;100.00;100707.91;4934612;28;20055;-71
2022/08/21 07:55:21;;;;;;;10.13;2.35;;;;;;;17.22;100.00;100704.78;4933278;28;20058;-71
2022/08/21 07:57:47;;;;;;;7.43;2.20;;;;;;;17.29;100.00;100706.03;4935492;28;20040;-71
2022/08/21 08:00:15;;;;;;;11.70;2.63;;;;;;;17.30;100.00;100710.38;4939957;29;20057;-71
2022/08/21 08:02:45;;;;;;;4.63;2.15;;;;;;;17.23;100.00;100706.50;4935464;28;20066;-70
2022/08/21 08:05:11;;;;;;;7.40;3.13;;;;;;;17.27;100.00;100713.25;4937065;29;20503;-70
2022/08/21 08:07:36;;;;;;;10.55;2.75;;;;;;;17.21;100.00;100711.06;4937608;28;20138;-71
2022/08/21 08:10:03;;;;;;;10.25;2.92;;;;;;;17.18;100.00;100713.94;4938087;29;20031;-72
2022/08/21 08:12:29;;;;;;;6.53;2.50;;;;;;;17.07;100.00;100695.25;4935870;29;20080;-71
2022/08/21 08:15:02;;;;;;;8.55;3.03;;;;;;;17.05;100.00;100675.94;4938292;28;20035;-71
2022/08/21 08:17:28;;;;;;;4.38;1.73;;;;;;;17.33;100.00;100712.84;4998839;28;20390;-71
2022/08/21 08:19:53;;;;;;;10.02;2.85;;;;;;;17.52;100.00;100706.16;4935584;28;20035;-71
2022/08/21 08:22:23;;;;;;;5.13;2.00;;;;;;;17.68;100.00;100709.38;4936510;28;20035;-71
2022/08/21 08:24:48;;;;;;;5.30;2.38;;;;;;;17.84;100.00;100702.81;4934120;29;20638;-72
2022/08/21 08:27:14;;;;;;;5.72;2.60;;;;;;;17.90;100.00;100680.25;4935215;28;20109;-71
2022/08/21 08:29:40;;;;;;;7.53;2.53;;;;;;;18.13;100.00;100695.28;4940257;28;20378;-71
2022/08/21 08:32:07;;;;;;;6.65;2.38;;;;;;;18.20;100.00;100693.00;4936836;28;20040;-71
2022/08/21 08:34:33;;;;;;;8.05;2.28;;;;;;;18.30;100.00;100696.66;4939348;28;20037;-70
2022/08/21 08:36:58;;;;;;;5.78;2.28;;;;;;;18.22;100.00;100691.06;4938198;29;20039;-73
2022/08/21 08:39:25;;;;;;;3.75;1.98;;;;;;;18.22;100.00;100681.28;4936891;28;20066;-71
2022/08/21 08:41:59;;;;;;;7.82;2.42;;;;;;;18.18;100.00;100663.03;4936014;28;20077;-71
2022/08/21 08:44:25;;;;;;;8.85;2.55;;;;;;;18.33;100.00;100685.75;4942613;28;21297;-71
2022/08/21 08:46:51;;;;;;;5.07;2.38;;;;;;;18.35;100.00;100682.00;4927998;28;20032;-71
2022/08/21 08:49:31;;;;;;;13.15;2.30;;;;;;;18.36;100.00;100678.38;4937938;28;20035;-71
2022/08/21 08:52:00;;;;;;;8.88;2.50;;;;;;;18.39;100.00;100670.16;4918565;28;20047;-71
2022/08/21 08:54:31;;;;;;;5.32;2.47;;;;;;;18.13;100.00;100623.47;4999928;28;20043;-70
2022/08/21 08:57:02;;;;;;;6.28;2.45;;;;;;;18.47;100.00;100672.22;5001690;28;20047;-70
2022/08/21 08:59:38;;;;;;;10.25;3.70;;;;;;;18.42;100.00;100650.44;4999075;28;20428;-73
2022/08/21 09:02:05;;;;;;;13.10;3.03;;;;;;;18.62;100.00;100664.91;4999878;28;20036;-72
2022/08/21 09:04:30;;;;;;;5.90;2.60;;;;;;;18.77;100.00;100666.31;4933623;28;20377;-73
2022/08/21 09:07:05;;;;;;;8.40;2.78;;;;;;;18.85;100.00;100664.75;4933102;28;20031;-71
2022/08/21 09:10:03;;;;;;;9.07;2.85;;;;;;;19.05;100.00;100665.81;4934045;29;20047;-73
2022/08/21 09:12:55;;;;;;;4.72;2.15;;;;;;;19.25;100.00;100653.53;4942593;29;20038;-72
2022/08/21 09:15:45;;;;;;;8.07;2.47;;;;;;;19.36;100.00;100662.31;4934753;29;20032;-72
2022/08/21 09:18:16;;;;;;;6.15;2.35;;;;;;;19.38;100.00;100657.72;4940587;28;20091;-69
2022/08/21 09:21:04;;;;;;;4.75;2.17;;;;;;;19.42;100.00;100660.16;4946109;28;20363;-72
2022/08/21 09:24:23;;;;;;;6.60;2.40;;;;;;;19.44;100.00;100667.03;4946341;29;20049;-73
2022/08/21 09:27:05;;;;;;;8.40;1.98;;;;;;;19.51;100.00;100659.38;4955588;28;20034;-73
2022/08/21 09:29:33;;;;;;;6.13;2.10;;;;;;;19.52;100.00;100666.41;4951927;28;20032;-72
2022/08/21 09:31:59;;;;;;;7.90;2.33;;;;;;;19.55;100.00;100663.50;4927184;28;20031;-73
2022/08/21 09:34:28;;;;;;;7.13;2.22;;;;;;;19.62;100.00;100664.69;4927739;28;20267;-72
2022/08/21 09:36:54;;;;;;;4.22;2.03;;;;;;;19.69;100.00;100645.38;4937389;28;20367;-72
2022/08/21 09:39:28;;;;;;;9.07;2.33;;;;;;;19.80;100.00;100647.16;4951132;29;20031;-72
2022/08/21 09:41:59;;;;;;;5.53;2.50;;;;;;;19.92;100.00;100662.09;4950613;28;20458;-73
2022/08/21 09:44:28;;;;;;;4.95;1.88;;;;;;;19.83;100.00;100638.88;4950588;29;20106;-73
2022/08/21 09:46:53;;;;;;;17.92;2.40;;;;;;;19.97;100.00;100657.25;4950775;28;20028;-72
2022/08/21 09:49:30;;;;;;;7.88;2.05;;;;;;;20.05;100.00;100661.91;4942086;28;20042;-73
2022/08/21 09:51:56;;;;;;;5.65;2.00;;;;;;;20.08;100.00;100651.81;4935515;29;20040;-72
2022/08/21 09:54:27;;;;;;;6.30;2.63;;;;;;;20.21;100.00;100651.63;4922602;28;20537;-74
2022/08/21 09:59:46;;;;;;;6.20;2.25;;;;;;;20.51;100.00;100656.16;4923292;28;20092;-72
2022/08/21 10:02:44;;;;;;;4.65;2.42;;;;;;;20.44;100.00;100636.31;4939480;29;20097;-71
2022/08/21 10:05:19;;;;;;;7.80;2.40;;;;;;;20.35;100.00;100622.78;4944512;28;20048;-69
2022/08/21 10:07:55;;;;;;;5.85;2.17;;;;;;;20.63;100.00;100650.56;4955922;28;20039;-72
2022/08/21 10:10:24;;;;;;;4.15;1.85;;;;;;;20.69;100.00;100649.19;4947477;29;20031;-73
2022/08/21 10:12:58;;;;;;;5.25;2.20;;;;;;;20.65;100.00;100621.06;4925808;28;20058;-72
2022/08/21 10:15:51;;;;;;;6.15;2.55;;;;;;;20.90;100.00;100648.13;4999724;28;20355;-72
2022/08/21 10:18:35;;;;;;;6.80;1.92;;;;;;;21.06;100.00;100644.91;4951202;28;20035;-72
2022/08/21 10:21:06;;;;;;;9.05;2.35;;;;;;;21.17;100.00;100642.16;4936189;28;20052;-71
2022/08/21 10:23:53;;;;;;;6.78;2.15;;;;;;;21.24;100.00;100645.13;4936118;28;20115;-72
2022/08/21 10:26:26;;;;;;;4.47;2.47;;;;;;;21.25;100.00;100638.81;4935489;28;20031;-72
2022/08/21 10:29:01;;;;;;;4.47;2.17;;;;;;;21.02;100.00;100595.41;5001611;28;20047;-71
2022/08/21 10:31:54;;;;;;;4.53;2.38;;;;;;;21.23;100.00;100640.75;4936082;29;20039;-74
2022/08/21 10:34:38;;;;;;;5.88;2.58;;;;;;;21.19;100.00;100640.19;4952422;28;20616;-72
2022/08/21 10:37:28;;;;;;;6.13;2.13;;;;;;;21.13;100.00;100643.41;4944125;28;20031;-72
2022/08/21 10:39:53;;;;;;;4.82;1.90;;;;;;;21.20;100.00;100631.19;4935140;28;20036;-72
2022/08/21 10:42:40;;;;;;;6.30;2.58;;;;;;;21.39;100.00;100641.91;4938710;28;20027;-71
2022/08/21 10:45:24;;;;;;;5.07;2.67;;;;;;;21.53;100.00;100637.13;4935532;29;20027;-72
2022/08/21 10:47:55;;;;;;;4.95;2.05;;;;;;;21.60;100.00;100643.59;4941122;28;20050;-70
2022/08/21 10:50:30;;;;;;;6.65;2.35;;;;;;;21.48;100.00;100628.69;4918092;28;20032;-72
2022/08/21 10:53:22;;;;;;;8.18;2.53;;;;;;;21.80;100.00;100630.06;5003048;28;20627;-71
2022/08/21 10:56:08;;;;;;;5.75;2.38;;;;;;;22.08;100.00;100636.38;4950823;28;20058;-72
2022/08/21 10:58:54;;;;;;;5.10;1.83;;;;;;;22.35;100.00;100625.72;4924720;28;20039;-72
2022/08/21 11:01:34;;;;;;;7.40;2.30;;;;;;;22.68;100.00;100631.53;4935771;28;20055;-73
2022/08/21 11:04:30;;;;;;;7.00;2.17;;;;;;;22.95;100.00;100623.47;4920982;28;20343;-72
2022/08/21 11:07:03;;;;;;;7.22;2.58;;;;;;;23.21;100.00;100627.13;4936867;28;20031;-72
2022/08/21 11:09:30;;;;;;;5.70;2.00;;;;;;;23.41;100.00;100625.16;4932773;28;20050;-71
2022/08/21 11:12:32;;;;;;;3.85;1.50;;;;;;;23.16;100.00;100601.75;4940844;29;20039;-72
2022/08/21 11:15:05;;;;;;;5.43;2.42;;;;;;;23.02;98.72;100612.97;4964881;28;20042;-73
2022/08/21 11:17:36;;;;;;;4.78;1.83;;;;;;;22.85;100.00;100612.81;4955092;28;20044;-72
2022/08/21 11:20:42;;;;;;;5.30;1.33;;;;;;;22.74;99.35;100609.50;4948774;28;20031;-73
2022/08/21 11:23:19;;;;;;;3.95;1.83;;;;;;;22.60;98.95;100613.50;4983013;28;20050;-73
2022/08/21 11:25:49;;;;;;;3.92;1.50;;;;;;;22.50;96.88;100599.31;4952925;28;20044;-73